Time;durP1;ratioP1;P1;durP2;ratioP2;P2;SDS_P1;SDS_P2;PMS_P1;PMS_P2;Temp;Humidity;BMP_temperature;BMP_pressure;BME280_temperature;BME280_humidity;BME280_pressure;Samples;Min_cycle;Max_cycle;Signal;HPM_P1;HPM_P2
2022/12/17 13:09:19;;;;;;;44.05;21.93;;;;;;;-3.79;79.29;101196.33;3435514;82;21021;-75
2022/12/17 13:14:38;;;;;;;46.80;21.97;;;;;;;-3.81;79.21;101189.33;3375366;83;21046;-74
2022/12/17 13:19:46;;;;;;;39.60;20.52;;;;;;;-3.85;79.22;101194.15;3406496;83;22248;-75
2022/12/17 13:24:37;;;;;;;37.38;18.42;;;;;;;-3.89;79.23;101194.67;3360304;83;21092;-74
2022/12/17 13:29:35;;;;;;;36.13;17.70;;;;;;;-3.96;79.02;101197.47;3385412;83;21007;-74
2022/12/17 13:34:49;;;;;;;39.42;20.80;;;;;;;-3.99;79.31;101190.86;3382921;83;20932;-74
2022/12/17 13:39:46;;;;;;;44.93;21.07;;;;;;;-3.98;79.33;101195.58;3352356;84;20990;-75
2022/12/17 13:44:44;;;;;;;44.85;21.75;;;;;;;-3.98;79.65;101201.54;3176114;88;22762;-74
2022/12/17 13:49:35;;;;;;;37.28;19.85;;;;;;;-3.99;79.62;101203.55;3193701;88;21154;-74
2022/12/17 13:54:26;;;;;;;30.90;16.42;;;;;;;-4.02;79.48;101214.37;3185960;87;21255;-74
2022/12/17 13:59:23;;;;;;;37.75;18.25;;;;;;;-4.08;79.31;101216.77;3206580;87;21517;-74
2022/12/17 14:04:26;;;;;;;31.27;16.90;;;;;;;-4.23;79.18;101222.73;3182186;87;21039;-75
2022/12/17 14:09:21;;;;;;;41.37;18.67;;;;;;;-4.34;79.50;101236.18;3189304;88;21075;-75
2022/12/17 14:14:40;;;;;;;34.38;17.00;;;;;;;-4.39;79.82;101239.59;3224315;87;21091;-74
2022/12/17 14:19:33;;;;;;;38.38;20.55;;;;;;;-4.49;79.59;101242.09;3240518;81;21454;-74
2022/12/17 14:24:28;;;;;;;34.20;16.50;;;;;;;-4.58;79.76;101249.80;3388915;81;21069;-75
2022/12/17 14:29:31;;;;;;;43.28;22.67;;;;;;;-4.65;79.64;101257.30;3368247;81;21375;-74
2022/12/17 14:34:23;;;;;;;45.85;21.70;;;;;;;-4.73;79.76;101265.88;3441845;81;20933;-74
2022/12/17 14:39:27;;;;;;;57.78;26.50;;;;;;;-4.73;79.92;101276.02;3395812;81;20937;-74
2022/12/17 14:44:28;;;;;;;40.43;20.97;;;;;;;-4.73;80.00;101286.17;3420830;81;21920;-74
2022/12/17 14:49:21;;;;;;;49.65;24.57;;;;;;;-4.80;79.90;101291.47;3445283;81;20941;-75
2022/12/17 14:54:30;;;;;;;40.78;22.48;;;;;;;-4.78;80.09;101293.76;3448168;82;20906;-75
2022/12/17 14:59:39;;;;;;;44.05;19.52;;;;;;;-4.77;80.29;101301.89;3447673;81;21169;-75
2022/12/17 15:04:31;;;;;;;41.48;20.27;;;;;;;-4.78;79.92;101303.91;3391748;81;21024;-74
2022/12/17 15:09:23;;;;;;;37.85;17.00;;;;;;;-4.83;80.03;101302.61;3368303;82;20941;-74
2022/12/17 15:14:14;;;;;;;31.30;17.62;;;;;;;-4.88;79.85;101309.83;3400049;81;21002;-73
2022/12/17 15:19:05;;;;;;;41.77;21.05;;;;;;;-4.89;80.17;101321.11;3447744;81;21095;-74
2022/12/17 15:23:56;;;;;;;36.42;16.40;;;;;;;-4.88;80.09;101329.21;3397257;81;21183;-74
2022/12/17 15:28:48;;;;;;;40.38;18.40;;;;;;;-4.89;80.03;101324.91;3371997;81;21031;-74
2022/12/17 15:33:40;;;;;;;40.23;18.65;;;;;;;-4.90;80.14;101333.27;3397548;82;20945;-74
2022/12/17 15:38:33;;;;;;;40.03;17.48;;;;;;;-4.94;80.01;101329.95;3397236;81;20882;-74
2022/12/17 15:43:24;;;;;;;40.85;19.17;;;;;;;-5.00;80.00;101332.45;3398395;83;20988;-74
2022/12/17 15:48:20;;;;;;;39.30;17.73;;;;;;;-4.98;80.20;101336.02;3398369;81;21315;-74
2022/12/17 15:53:11;;;;;;;44.23;22.93;;;;;;;-5.02;80.00;101341.58;3358546;81;20953;-74
2022/12/17 15:58:05;;;;;;;46.95;22.82;;;;;;;-5.07;80.12;101355.48;3444421;81;20963;-74
2022/12/17 16:02:56;;;;;;;52.75;31.80;;;;;;;-5.08;80.20;101351.19;3430952;81;20945;-74
2022/12/17 16:07:49;;;;;;;55.08;31.97;;;;;;;-5.08;80.25;101370.56;3348017;82;21028;-74
2022/12/17 16:12:41;;;;;;;44.15;20.60;;;;;;;-5.11;80.17;101379.19;3367519;83;22140;-74
2022/12/17 16:17:32;;;;;;;68.80;29.37;;;;;;;-5.17;80.23;101373.16;3356205;82;21067;-74
2022/12/17 16:22:23;;;;;;;48.80;24.75;;;;;;;-5.15;80.36;101374.56;3373386;82;21074;-74
2022/12/17 16:27:16;;;;;;;53.20;26.20;;;;;;;-5.21;80.35;101384.66;3393897;82;20992;-74
2022/12/17 16:32:07;;;;;;;51.18;25.05;;;;;;;-5.21;80.11;101391.39;3389521;82;21697;-74
2022/12/17 16:37:00;;;;;;;77.92;34.60;;;;;;;-5.23;80.43;101393.78;3369972;82;21987;-75
2022/12/17 16:41:51;;;;;;;86.37;37.60;;;;;;;-5.26;80.27;101403.67;3421254;82;20933;-74
2022/12/17 16:46:45;;;;;;;65.97;28.45;;;;;;;-5.28;80.33;101401.73;3380997;82;22081;-74
2022/12/17 16:51:36;;;;;;;74.05;34.43;;;;;;;-5.30;80.23;101405.77;3385318;82;21495;-74
2022/12/17 16:56:28;;;;;;;59.65;28.85;;;;;;;-5.32;80.13;101422.48;3392418;83;20960;-74
2022/12/17 17:01:22;;;;;;;46.48;22.32;;;;;;;-5.32;80.21;101431.36;3394520;83;21361;-74
2022/12/17 17:06:15;;;;;;;51.10;25.65;;;;;;;-5.32;80.21;101431.36;3396075;82;21018;-74
2022/12/17 17:11:22;;;;;;;54.75;27.70;;;;;;;-5.31;80.25;101439.46;3311629;83;20991;-74
2022/12/17 17:16:14;;;;;;;47.20;24.80;;;;;;;-5.28;80.48;101444.83;3332071;83;21252;-73
2022/12/17 17:21:16;;;;;;;64.03;31.17;;;;;;;-5.27;80.35;101447.50;3325287;83;20924;-73
2022/12/17 17:26:09;;;;;;;60.85;31.87;;;;;;;-5.28;80.28;101460.92;3347506;83;21568;-74
2022/12/17 17:31:02;;;;;;;68.52;34.38;;;;;;;-5.29;80.39;101470.56;3328891;83;21642;-73
2022/12/17 17:35:54;;;;;;;50.12;25.02;;;;;;;-5.28;80.23;101480.31;3290270;83;20993;-74
2022/12/17 17:40:45;;;;;;;49.40;24.40;;;;;;;-5.36;80.13;101490.64;3278669;83;21003;-73
2022/12/17 17:45:39;;;;;;;41.75;21.33;;;;;;;-5.41;80.11;101489.31;3338881;83;21047;-74
2022/12/17 17:50:29;;;;;;;54.95;26.75;;;;;;;-5.46;80.05;101493.06;3357460;83;21285;-74
2022/12/17 17:55:20;;;;;;;48.58;23.02;;;;;;;-5.49;80.09;101483.92;3315767;83;21011;-74
2022/12/17 18:00:13;;;;;;;44.90;22.60;;;;;;;-5.50;80.25;101490.11;3334926;84;20983;-74
2022/12/17 18:05:04;;;;;;;42.20;19.82;;;;;;;-5.46;80.28;101495.59;3322155;84;21532;-74
2022/12/17 18:09:58;;;;;;;40.73;19.90;;;;;;;-5.48;80.08;101503.81;3388033;82;21590;-74
2022/12/17 18:14:49;;;;;;;38.23;19.52;;;;;;;-5.50;80.14;101510.00;3375824;82;21657;-74
2022/12/17 18:19:40;;;;;;;52.50;25.27;;;;;;;-5.53;79.99;101516.05;3364004;84;21064;-74
2022/12/17 18:24:31;;;;;;;55.05;27.60;;;;;;;-5.57;80.02;101528.80;3396177;82;21005;-74
2022/12/17 18:29:26;;;;;;;50.83;26.35;;;;;;;-5.60;79.90;101539.02;3397412;82;24931;-74
2022/12/17 18:34:21;;;;;;;44.35;22.60;;;;;;;-5.59;80.03;101540.82;3413374;82;20996;-74
2022/12/17 18:39:17;;;;;;;44.20;21.05;;;;;;;-5.59;80.03;101553.11;3332490;82;21059;-74
2022/12/17 18:44:10;;;;;;;59.63;27.42;;;;;;;-5.59;80.11;101566.16;3389486;83;20989;-74
2022/12/17 18:49:06;;;;;;;41.92;21.55;;;;;;;-5.60;80.13;101570.70;3389381;82;21447;-74
2022/12/17 18:54:00;;;;;;;47.27;25.37;;;;;;;-5.58;80.26;101590.73;3342150;83;20985;-74
2022/12/17 18:58:53;;;;;;;42.05;21.62;;;;;;;-5.57;80.22;101591.27;3361141;82;21240;-74
2022/12/17 19:03:44;;;;;;;38.58;21.27;;;;;;;-5.58;80.29;101595.80;3395542;82;22093;-74
2022/12/17 19:08:35;;;;;;;42.20;20.97;;;;;;;-5.57;80.28;101595.06;3341878;83;20991;-74
2022/12/17 19:13:26;;;;;;;45.63;21.90;;;;;;;-5.56;80.23;101608.27;3307092;83;21523;-73
2022/12/17 19:18:18;;;;;;;39.65;20.75;;;;;;;-5.57;80.30;101600.13;3373492;83;20943;-73
2022/12/17 19:23:09;;;;;;;34.53;18.00;;;;;;;-5.60;79.97;101608.70;3314029;83;20955;-74
2022/12/17 19:28:00;;;;;;;36.70;19.95;;;;;;;-5.65;80.01;101612.43;3336571;83;21014;-74
2022/12/17 19:32:51;;;;;;;33.55;17.45;;;;;;;-5.66;80.19;101629.66;3271802;84;20986;-73
2022/12/17 19:37:43;;;;;;;32.75;16.80;;;;;;;-5.67;80.20;101619.00;3319594;83;20963;-73
2022/12/17 19:42:34;;;;;;;43.23;19.40;;;;;;;-5.65;80.37;101631.44;3379175;83;21038;-74
2022/12/17 19:47:25;;;;;;;34.23;17.77;;;;;;;-5.66;80.36;101627.13;3341120;83;21007;-73
2022/12/17 19:52:16;;;;;;;37.78;19.05;;;;;;;-5.65;80.31;101637.42;3325329;83;21520;-73
2022/12/17 19:57:08;;;;;;;41.55;18.60;;;;;;;-5.63;80.61;101646.44;3313016;83;20963;-73
2022/12/17 20:02:02;;;;;;;34.23;19.45;;;;;;;-5.62;80.44;101654.55;3291817;83;21004;-74
2022/12/17 20:06:52;;;;;;;92.55;44.35;;;;;;;-5.63;80.51;101657.84;3335950;83;21546;-72
2022/12/17 20:11:43;;;;;;;39.05;19.27;;;;;;;-5.60;80.61;101666.98;3377921;83;21042;-74
2022/12/17 20:16:44;;;;;;;51.15;25.27;;;;;;;-5.59;80.72;101670.05;3312278;83;21268;-73
2022/12/17 20:21:35;;;;;;;37.33;19.32;;;;;;;-5.57;80.79;101659.30;3342157;83;21520;-73
2022/12/17 20:26:29;;;;;;;35.03;17.35;;;;;;;-5.55;80.77;101664.52;3331031;83;21315;-73
2022/12/17 20:31:21;;;;;;;31.68;17.77;;;;;;;-5.53;80.87;101675.70;3322529;83;20963;-73
2022/12/17 20:36:15;;;;;;;36.75;19.92;;;;;;;-5.52;80.87;101681.69;3352970;83;20971;-74
2022/12/17 20:41:20;;;;;;;42.45;23.92;;;;;;;-5.52;80.82;101684.22;3310039;83;21096;-73
2022/12/17 20:46:11;;;;;;;39.50;20.30;;;;;;;-5.52;81.07;101692.70;3295987;83;21373;-74
2022/12/17 20:51:18;;;;;;;38.30;19.30;;;;;;;-5.48;81.20;101706.19;3282311;83;21018;-73
2022/12/17 20:56:15;;;;;;;44.23;20.62;;;;;;;-5.47;81.06;101705.45;3363974;83;20986;-73
2022/12/17 21:01:20;;;;;;;34.45;19.57;;;;;;;-5.43;81.31;101710.06;3340694;83;21007;-73
2022/12/17 21:06:17;;;;;;;30.92;17.52;;;;;;;-5.43;81.24;101716.40;3377864;83;21338;-73
2022/12/17 21:11:09;;;;;;;42.67;21.87;;;;;;;-5.40;81.31;101729.38;3334078;83;21513;-73
2022/12/17 21:16:05;;;;;;;40.20;21.20;;;;;;;-5.39;81.33;101737.48;3306731;83;21037;-73
2022/12/17 21:21:13;;;;;;;37.42;19.65;;;;;;;-5.36;81.44;101740.70;3343829;84;21030;-73
2022/12/17 21:26:13;;;;;;;33.33;17.50;;;;;;;-5.29;81.70;101758.66;3352324;84;21555;-73
2022/12/17 21:31:05;;;;;;;37.10;18.73;;;;;;;-5.27;81.31;101752.12;3325802;83;22327;-73
2022/12/17 21:36:04;;;;;;;37.20;17.57;;;;;;;-5.27;81.45;101753.39;3280098;83;21515;-74
2022/12/17 21:40:56;;;;;;;45.33;21.93;;;;;;;-5.27;81.38;101754.66;3381862;83;21532;-73
2022/12/17 21:45:47;;;;;;;41.58;20.43;;;;;;;-5.25;81.55;101764.56;3302573;83;20995;-73
2022/12/17 21:50:42;;;;;;;25.80;14.73;;;;;;;-5.23;81.70;101775.75;3356889;83;21022;-73
2022/12/17 21:55:33;;;;;;;35.38;17.48;;;;;;;-5.22;81.74;101767.41;3357079;83;22002;-73
2022/12/17 22:00:24;;;;;;;33.50;17.27;;;;;;;-5.22;81.76;101774.62;3310230;83;21247;-73
2022/12/17 22:05:16;;;;;;;38.30;17.35;;;;;;;-5.22;81.75;101773.75;3310784;83;36922;-73
2022/12/17 22:10:08;;;;;;;42.20;21.35;;;;;;;-5.20;81.87;101783.66;3296336;83;21485;-73
2022/12/17 22:14:59;;;;;;;41.28;19.90;;;;;;;-5.17;82.04;101779.78;3355982;83;20978;-73
2022/12/17 22:19:50;;;;;;;38.78;21.75;;;;;;;-5.14;81.91;101776.63;3353013;83;21493;-73
2022/12/17 22:24:42;;;;;;;38.55;21.33;;;;;;;-5.13;81.94;101788.58;3318887;83;21326;-73
2022/12/17 22:34:42;;;;;;;43.10;23.45;;;;;;;-5.07;81.96;101790.42;3329612;83;21443;-73
2022/12/17 22:39:33;;;;;;;45.15;24.37;;;;;;;-5.04;82.04;101797.06;3332712;83;22617;-73
2022/12/17 22:44:25;;;;;;;50.12;24.50;;;;;;;-5.07;81.85;101804.38;3364765;83;21555;-73
2022/12/17 22:49:18;;;;;;;36.73;22.13;;;;;;;-5.10;81.81;101814.21;3322772;83;20994;-73
2022/12/17 22:54:11;;;;;;;36.13;18.85;;;;;;;-5.13;81.59;101826.61;3310626;83;20987;-73
2022/12/17 22:59:04;;;;;;;46.28;25.20;;;;;;;-5.15;81.45;101829.38;3375868;83;20994;-73
2022/12/17 23:03:58;;;;;;;46.63;25.72;;;;;;;-5.20;81.61;101839.44;3289509;83;21046;-72
2022/12/17 23:08:49;;;;;;;76.37;38.55;;;;;;;-5.23;81.57;101837.86;3367678;84;21948;-73
2022/12/17 23:13:41;;;;;;;51.30;27.15;;;;;;;-5.24;81.57;101847.13;3374992;84;20996;-72
2022/12/17 23:18:33;;;;;;;40.23;23.83;;;;;;;-5.24;81.62;101863.95;3324210;84;20972;-73
2022/12/17 23:23:25;;;;;;;43.52;23.02;;;;;;;-5.23;81.73;101854.34;3376206;82;21024;-73
2022/12/17 23:28:16;;;;;;;41.40;22.82;;;;;;;-5.21;81.74;101860.45;3302997;84;21419;-73
2022/12/17 23:33:08;;;;;;;41.83;24.90;;;;;;;-5.17;81.71;101858.73;3400017;83;21247;-73
2022/12/17 23:37:59;;;;;;;49.00;24.52;;;;;;;-5.14;81.74;101849.28;3372625;84;21013;-73
2022/12/17 23:42:51;;;;;;;41.83;22.70;;;;;;;-5.15;81.57;101850.94;3354624;84;21582;-73
2022/12/17 23:47:42;;;;;;;40.88;23.42;;;;;;;-5.14;81.72;101857.78;3395206;83;20976;-73
2022/12/17 23:52:33;;;;;;;46.25;24.87;;;;;;;-5.10;81.84;101877.61;3370855;83;20956;-73
2022/12/17 23:57:24;;;;;;;44.45;24.92;;;;;;;-5.10;81.83;101875.08;3374810;84;21311;-73
